JRB weather

Downtown-Manhattan/Wall St Heliport
New York, New York, United States

Public forecast

Using degrees Fahrenheit for public forecast. Weather courtesy of forecast.io.

METAR (pilot weather report)

Closest report is Newark Liberty International Airport, 7.3 nm (13.5 km) W. Retrieved 2019/05/23 09:51 UTC (36 minutes ago):

KEWR 230951Z 19004KT 10SM -RA BKN049 OVC070 16/11 A3021 RMK AO2 SLP230 P0002 T01610106

TAF (pilot weather forecast)

Closest forecast is Newark Liberty International Airport, 7.3 nm (13.5 km) W. Retrieved 2019/05/23 06:22 UTC (4 hours ago):

TAF KEWR 230520Z 2306/2412 20006KT P6SM BKN100 FM231300 21010KT P6SM BKN040 OVC080 FM232000 22012G20KT P6SM BKN040 OVC070 PROB30 2323/2401 3SM -TSRA OVC035CB FM240100 24010KT P6SM SCT040